createdAt,value
2022-08-12T00:00:45.887Z,3.00
2022-08-12T00:03:31.753Z,3.70
2022-08-12T00:06:17.841Z,3.50
2022-08-12T00:09:03.606Z,2.40
2022-08-12T00:11:49.488Z,3.00
2022-08-12T00:14:35.209Z,4.00
2022-08-12T00:17:23.127Z,3.30
2022-08-12T00:20:09.827Z,3.70
2022-08-12T00:22:59.057Z,3.10
2022-08-12T00:26:20.994Z,3.50
2022-08-12T00:29:02.371Z,3.10
2022-08-12T00:31:48.197Z,3.60
2022-08-12T00:34:35.214Z,3.70
2022-08-12T00:37:20.996Z,2.50
2022-08-12T00:40:11.315Z,2.60
2022-08-12T00:42:42.275Z,3.30
2022-08-12T00:45:10.602Z,3.70
2022-08-12T00:47:37.577Z,3.90
2022-08-12T00:50:04.728Z,2.40
2022-08-12T00:52:31.823Z,3.30
2022-08-12T00:54:59.846Z,3.40
2022-08-12T00:57:29.409Z,4.60
2022-08-12T01:00:01.698Z,4.40
2022-08-12T01:02:33.838Z,4.10
2022-08-12T01:05:21.062Z,3.00
2022-08-12T01:08:07.486Z,3.50
2022-08-12T01:10:55.236Z,4.40
2022-08-12T01:13:22.611Z,5.30
2022-08-12T01:15:52.950Z,2.90
2022-08-12T01:18:21.300Z,3.10
2022-08-12T01:21:10.278Z,3.90
2022-08-12T01:23:50.351Z,4.70
2022-08-12T01:26:19.586Z,4.80
2022-08-12T01:28:48.552Z,3.40
2022-08-12T01:31:18.798Z,3.90
2022-08-12T01:34:04.308Z,4.40
2022-08-12T01:36:37.148Z,4.50
2022-08-12T01:39:04.418Z,4.20
2022-08-12T01:41:31.649Z,2.90
2022-08-12T01:44:01.235Z,3.20
2022-08-12T01:46:43.590Z,3.40
2022-08-12T01:49:21.727Z,4.00
2022-08-12T01:52:16.352Z,4.30
2022-08-12T01:54:43.587Z,4.50
2022-08-12T01:57:59.518Z,2.80
2022-08-12T02:00:14.476Z,3.40
2022-08-12T02:02:48.485Z,4.20
2022-08-12T02:05:58.668Z,4.20
2022-08-12T02:09:11.306Z,4.60
2022-08-12T02:12:06.206Z,3.20
2022-08-12T02:14:52.028Z,3.70
2022-08-12T02:20:50.921Z,4.90
2022-08-12T02:23:22.053Z,4.80
2022-08-12T02:25:49.069Z,3.30
2022-08-12T02:28:16.118Z,4.10
2022-08-12T02:30:43.094Z,4.30
2022-08-12T02:33:10.326Z,4.40
2022-08-12T02:35:38.001Z,5.20
2022-08-12T02:38:07.223Z,4.60
2022-08-12T02:40:36.402Z,3.00
2022-08-12T02:43:05.888Z,3.80
2022-08-12T02:45:45.644Z,3.80
2022-08-12T02:48:16.815Z,4.20
2022-08-12T02:50:46.373Z,4.60
2022-08-12T02:53:13.439Z,5.60
2022-08-12T02:55:40.579Z,3.30
2022-08-12T02:58:11.928Z,4.30
2022-08-12T03:00:40.456Z,3.60
2022-08-12T03:03:09.213Z,4.10
2022-08-12T03:05:44.247Z,4.20
2022-08-12T03:08:27.764Z,4.20
2022-08-12T03:11:04.290Z,5.30
2022-08-12T03:13:34.065Z,5.70
2022-08-12T03:16:01.290Z,7.50
2022-08-12T03:18:32.685Z,6.00
2022-08-12T03:21:00.756Z,5.80
2022-08-12T03:23:30.658Z,3.70
2022-08-12T03:26:02.754Z,4.00
2022-08-12T03:28:50.806Z,4.20
2022-08-12T03:31:19.954Z,5.00
2022-08-12T03:34:02.198Z,4.50
2022-08-12T03:36:35.545Z,3.20
2022-08-12T03:39:18.878Z,5.20
2022-08-12T03:42:09.278Z,4.60
2022-08-12T03:44:59.439Z,5.10
2022-08-12T03:47:52.906Z,5.00
2022-08-12T03:50:38.632Z,3.70
2022-08-12T03:53:27.762Z,4.00
2022-08-12T03:56:13.747Z,4.60
2022-08-12T03:58:59.855Z,4.70
2022-08-12T04:01:27.156Z,4.90
2022-08-12T04:03:55.180Z,3.40
2022-08-12T04:06:35.378Z,3.80
2022-08-12T04:09:15.795Z,4.50
2022-08-12T04:12:03.406Z,4.60
2022-08-12T04:14:31.104Z,5.40
2022-08-12T04:16:58.432Z,4.00
2022-08-12T04:19:26.543Z,4.10
2022-08-12T04:22:03.105Z,4.30
2022-08-12T04:24:35.710Z,4.60
2022-08-12T04:27:05.887Z,5.40
2022-08-12T04:30:21.496Z,3.70
2022-08-12T04:32:22.081Z,3.90
2022-08-12T04:34:50.281Z,5.00
2022-08-12T04:37:17.303Z,5.10
2022-08-12T04:39:45.072Z,5.70
2022-08-12T04:42:12.206Z,4.20
2022-08-12T04:44:39.367Z,4.80
2022-08-12T04:47:06.357Z,4.40
2022-08-12T04:49:33.463Z,5.20
2022-08-12T04:52:00.621Z,4.90
2022-08-12T04:54:27.865Z,3.70
2022-08-12T04:57:04.504Z,4.90
2022-08-12T04:59:47.850Z,5.20
2022-08-12T05:02:21.288Z,5.00
2022-08-12T05:04:52.787Z,5.40
2022-08-12T05:07:21.006Z,4.00
2022-08-12T05:10:02.055Z,4.20
2022-08-12T05:12:44.776Z,5.30
2022-08-12T05:15:19.687Z,5.10
2022-08-12T05:17:56.215Z,5.80
2022-08-12T05:20:27.224Z,4.10
2022-08-12T05:23:26.131Z,4.30
2022-08-12T05:25:56.601Z,4.40
2022-08-12T05:28:24.820Z,5.50
2022-08-12T05:30:51.959Z,5.80
2022-08-12T05:33:18.825Z,4.40
2022-08-12T05:35:47.820Z,4.70
2022-08-12T05:38:37.797Z,5.60
2022-08-12T05:41:06.017Z,5.10
2022-08-12T05:43:36.089Z,5.90
2022-08-12T05:46:03.058Z,4.70
2022-08-12T05:48:33.271Z,5.00
2022-08-12T05:51:00.172Z,5.20
2022-08-12T05:53:27.481Z,6.00
2022-08-12T05:55:55.112Z,6.60
2022-08-12T05:58:22.158Z,4.70
2022-08-12T06:00:49.214Z,4.70
2022-08-12T06:03:19.487Z,6.40
2022-08-12T06:05:55.378Z,8.70
2022-08-12T06:08:24.821Z,30.30
2022-08-12T06:10:52.150Z,22.10
2022-08-12T06:13:28.409Z,15.10
2022-08-12T06:16:07.583Z,17.60
2022-08-12T06:18:34.903Z,13.60
2022-08-12T06:21:02.385Z,6.90
2022-08-12T06:23:30.439Z,6.20
2022-08-12T06:25:58.300Z,8.60
2022-08-12T06:28:25.437Z,7.10
2022-08-12T06:33:55.466Z,5.10
2022-08-12T06:36:29.953Z,5.60
2022-08-12T06:38:59.730Z,6.30
2022-08-12T06:42:02.481Z,7.00
2022-08-12T06:44:32.884Z,6.40
2022-08-12T06:47:00.578Z,4.50
2022-08-12T06:49:28.560Z,6.00
2022-08-12T06:51:56.852Z,7.70
2022-08-12T06:54:31.946Z,7.30
2022-08-12T06:57:04.947Z,7.40
2022-08-12T06:59:51.341Z,7.80
2022-08-12T07:02:20.874Z,6.50
2022-08-12T07:04:47.903Z,7.20
2022-08-12T07:07:14.955Z,8.30
2022-08-12T07:10:04.002Z,8.50
2022-08-12T07:12:30.963Z,7.10
2022-08-12T07:14:58.962Z,4.70
2022-08-12T07:17:26.839Z,4.80
2022-08-12T07:19:58.062Z,5.10
2022-08-12T07:22:27.957Z,6.30
2022-08-12T07:25:13.645Z,7.40
2022-08-12T07:27:41.066Z,7.70
2022-08-12T07:30:10.074Z,5.20
2022-08-12T07:32:37.547Z,6.00
2022-08-12T07:35:05.156Z,6.50
2022-08-12T07:37:33.796Z,7.10
2022-08-12T07:40:01.278Z,8.70
2022-08-12T07:42:29.678Z,8.10
2022-08-12T07:44:56.963Z,5.50
2022-08-12T07:47:24.849Z,6.60
2022-08-12T07:50:04.722Z,7.30
2022-08-12T07:52:35.035Z,8.90
2022-08-12T07:55:02.580Z,9.10
2022-08-12T07:57:29.497Z,6.00
2022-08-12T07:59:56.470Z,7.40
2022-08-12T08:02:30.716Z,7.70
2022-08-12T08:04:58.756Z,8.00
2022-08-12T08:07:30.986Z,8.60
2022-08-12T08:09:59.777Z,6.20
2022-08-12T08:12:46.324Z,6.90
2022-08-12T08:15:15.297Z,7.10
2022-08-12T08:18:02.963Z,8.30
2022-08-12T08:20:39.923Z,8.10
2022-08-12T08:23:12.373Z,4.90
2022-08-12T08:25:40.069Z,6.20
2022-08-12T08:28:19.399Z,6.50
2022-08-12T08:30:49.567Z,8.20
2022-08-12T08:33:23.759Z,8.20
2022-08-12T08:36:16.341Z,6.60
2022-08-12T08:38:53.327Z,6.60
2022-08-12T08:42:19.187Z,8.10
2022-08-12T08:44:38.401Z,7.30
2022-08-12T08:47:06.947Z,6.90
2022-08-12T08:49:37.343Z,6.90
2022-08-12T08:52:09.151Z,7.00
2022-08-12T08:54:37.962Z,7.40
2022-08-12T08:57:06.265Z,5.20
2022-08-12T08:59:33.430Z,6.50
2022-08-12T09:02:00.955Z,6.80
2022-08-12T09:05:11.903Z,6.90
2022-08-12T09:07:51.070Z,7.70
2022-08-12T09:10:09.317Z,5.80
2022-08-12T09:13:23.300Z,5.60
2022-08-12T09:15:56.102Z,6.60
2022-08-12T09:18:41.198Z,8.00
2022-08-12T09:21:09.726Z,5.50
2022-08-12T09:23:58.558Z,8.30
2022-08-12T09:26:28.164Z,7.90
2022-08-12T09:28:57.192Z,14.20
2022-08-12T09:32:03.473Z,9.00
2022-08-12T09:34:27.804Z,8.50
2022-08-12T09:37:02.769Z,10.90
2022-08-12T09:40:04.341Z,15.30
2022-08-12T09:43:11.263Z,8.20
2022-08-12T09:46:11.498Z,10.00
2022-08-12T09:48:26.802Z,17.70
2022-08-12T09:51:02.378Z,9.30
2022-08-12T09:53:38.778Z,5.90
2022-08-12T09:56:58.598Z,5.60
2022-08-12T09:59:09.091Z,6.60
2022-08-12T10:02:52.819Z,7.30
2022-08-12T10:04:26.231Z,5.50
2022-08-12T10:06:57.924Z,6.60
2022-08-12T10:09:28.972Z,7.90
2022-08-12T10:34:07.556Z,5.30
2022-08-12T10:36:55.781Z,6.20
2022-08-12T10:40:01.197Z,6.30
2022-08-12T10:42:33.138Z,6.80
2022-08-12T10:45:06.180Z,6.20
2022-08-12T10:48:07.304Z,6.10
2022-08-12T10:50:29.469Z,6.60
2022-08-12T10:53:08.815Z,7.70
2022-08-12T10:55:36.333Z,6.90
2022-08-12T10:58:14.065Z,5.10
2022-08-12T11:01:26.014Z,6.40
2022-08-12T11:04:31.873Z,6.40
2022-08-12T11:07:09.588Z,6.60
2022-08-12T11:09:10.847Z,5.00
2022-08-12T11:12:36.727Z,6.10
2022-08-12T11:14:49.952Z,6.50
2022-08-12T11:17:43.891Z,6.60
2022-08-12T11:20:06.049Z,4.80
2022-08-12T11:22:33.056Z,5.50
2022-08-12T11:25:00.782Z,5.80
2022-08-12T11:27:29.528Z,6.70
2022-08-12T11:30:02.529Z,6.60
2022-08-12T11:32:39.139Z,5.50
2022-08-12T11:35:07.646Z,5.60
2022-08-12T11:37:58.430Z,6.60
2022-08-12T11:40:23.933Z,7.70
2022-08-12T11:42:52.052Z,7.20
2022-08-12T11:45:19.465Z,5.10
2022-08-12T11:47:46.320Z,5.70
2022-08-12T11:50:19.563Z,6.30
2022-08-12T11:52:56.848Z,5.90
2022-08-12T11:55:35.003Z,7.10
2022-08-12T11:58:38.250Z,5.80
2022-08-12T12:03:47.974Z,6.10
2022-08-12T12:06:17.492Z,6.50
2022-08-12T12:08:50.482Z,6.60
2022-08-12T12:11:18.376Z,6.90
2022-08-12T12:14:11.086Z,6.40
2022-08-12T12:16:38.259Z,5.50
2022-08-12T12:19:08.277Z,6.10
2022-08-12T12:21:47.557Z,6.40
2022-08-12T12:24:21.725Z,6.90
2022-08-12T12:27:00.674Z,7.20
2022-08-12T12:30:18.439Z,5.60
2022-08-12T12:32:19.195Z,5.80
2022-08-12T12:35:13.562Z,6.30
2022-08-12T12:38:04.040Z,7.00
2022-08-12T12:40:21.580Z,6.70
2022-08-12T12:42:56.876Z,6.70
2022-08-12T12:45:32.345Z,5.00
2022-08-12T12:48:06.001Z,5.40
2022-08-12T12:50:42.716Z,5.60
2022-08-12T12:54:06.467Z,6.40
2022-08-12T12:56:05.542Z,6.50
2022-08-12T12:58:33.614Z,6.70
2022-08-12T13:01:04.944Z,4.60
2022-08-12T13:03:53.651Z,5.50
2022-08-12T13:06:30.171Z,6.20
2022-08-12T13:09:02.674Z,5.90
2022-08-12T13:11:41.155Z,6.60
2022-08-12T13:14:29.199Z,5.90
2022-08-12T13:17:00.692Z,4.70
2022-08-12T13:19:38.629Z,5.20
2022-08-12T13:22:18.042Z,6.10
2022-08-12T13:24:46.489Z,6.20
2022-08-12T13:27:20.324Z,6.40
2022-08-12T13:29:48.961Z,6.80
2022-08-12T13:32:30.741Z,4.50
2022-08-12T13:35:04.381Z,5.30
2022-08-12T13:37:55.121Z,5.40
2022-08-12T13:40:27.972Z,5.50
2022-08-12T13:42:58.290Z,6.20
2022-08-12T13:45:25.977Z,5.90
2022-08-12T13:47:56.372Z,4.70
2022-08-12T13:50:26.676Z,5.10
2022-08-12T13:52:54.190Z,5.10
2022-08-12T13:55:25.307Z,5.90
2022-08-12T13:58:00.137Z,6.30
2022-08-12T14:00:38.019Z,6.70
2022-08-12T14:03:05.829Z,4.60
2022-08-12T14:05:39.113Z,5.50
2022-08-12T14:08:07.888Z,5.70
2022-08-12T14:10:51.162Z,6.30
2022-08-12T14:14:03.428Z,6.90
2022-08-12T14:16:10.546Z,6.50
2022-08-12T14:18:42.709Z,4.80
2022-08-12T14:21:11.306Z,5.70
2022-08-12T14:24:08.068Z,5.90
2022-08-12T14:26:39.373Z,5.70
2022-08-12T14:29:06.211Z,6.30
2022-08-12T14:31:34.260Z,4.50
2022-08-12T14:34:05.223Z,5.20
2022-08-12T14:36:32.861Z,5.40
2022-08-12T14:39:05.753Z,5.80
2022-08-12T14:41:37.079Z,6.50
2022-08-12T14:44:59.000Z,6.10
2022-08-12T14:47:08.079Z,5.10
2022-08-12T14:50:33.607Z,5.30
2022-08-12T14:53:11.330Z,5.60
2022-08-12T14:58:01.669Z,6.10
2022-08-12T15:00:52.393Z,4.60
2022-08-12T15:03:52.433Z,4.80
2022-08-12T15:06:43.819Z,4.70
2022-08-12T15:09:06.392Z,5.30
2022-08-12T15:11:54.861Z,5.50
2022-08-12T15:14:21.139Z,5.60
2022-08-12T15:16:50.669Z,4.10
2022-08-12T15:20:28.750Z,4.30
2022-08-12T15:22:35.528Z,4.80
2022-08-12T15:24:51.753Z,6.30
2022-08-12T15:27:22.468Z,6.40
2022-08-12T15:29:59.128Z,7.60
2022-08-12T15:32:32.471Z,5.40
2022-08-12T15:35:00.006Z,4.90
2022-08-12T15:38:08.306Z,5.50
2022-08-12T15:40:13.849Z,6.00
2022-08-12T15:42:51.096Z,6.60
2022-08-12T15:45:23.653Z,6.50
2022-08-12T15:47:52.815Z,4.50
2022-08-12T15:50:23.366Z,4.80
2022-08-12T15:52:54.688Z,5.50
2022-08-12T15:55:23.872Z,6.50
2022-08-12T15:57:59.039Z,7.80
2022-08-12T16:00:33.429Z,6.70
2022-08-12T16:03:05.842Z,4.50
2022-08-12T16:06:13.159Z,5.30
2022-08-12T16:08:27.692Z,6.10
2022-08-12T16:10:56.284Z,6.10
2022-08-12T16:13:32.784Z,7.20
2022-08-12T16:16:22.636Z,6.30
2022-08-12T16:18:56.293Z,4.90
2022-08-12T16:21:52.126Z,5.70
2022-08-12T16:24:11.611Z,5.80
2022-08-12T16:26:39.148Z,6.30
2022-08-12T16:29:14.559Z,6.60
2022-08-12T16:31:45.832Z,7.40
2022-08-12T16:34:40.028Z,5.30
2022-08-12T16:37:07.507Z,5.80
2022-08-12T16:42:28.141Z,6.10
2022-08-12T16:45:00.032Z,6.80
2022-08-12T16:47:30.866Z,7.10
2022-08-12T16:50:19.059Z,4.90
2022-08-12T16:52:49.050Z,5.10
2022-08-12T16:55:18.629Z,5.70
2022-08-12T16:57:48.231Z,6.30
2022-08-12T17:00:17.162Z,6.20
2022-08-12T17:02:44.958Z,6.40
2022-08-12T17:05:24.804Z,4.20
2022-08-12T17:07:59.641Z,5.30
2022-08-12T17:10:36.317Z,5.60
2022-08-12T17:13:10.083Z,6.30
2022-08-12T17:18:43.342Z,7.50
2022-08-12T17:21:19.816Z,5.70
2022-08-12T17:23:53.677Z,7.10
2022-08-12T17:26:22.819Z,7.50
2022-08-12T17:28:59.877Z,8.00
2022-08-12T17:32:00.916Z,8.50
2022-08-12T17:34:34.385Z,8.10
2022-08-12T17:37:05.274Z,5.10
2022-08-12T17:40:14.982Z,6.50
2022-08-12T17:42:32.556Z,6.50
2022-08-12T17:45:17.208Z,6.80
2022-08-12T17:48:01.817Z,7.90
2022-08-12T17:50:34.193Z,8.10
2022-08-12T17:53:02.901Z,6.10
2022-08-12T17:55:40.714Z,6.20
2022-08-12T17:58:12.977Z,7.10
2022-08-12T18:00:43.710Z,7.90
2022-08-12T18:03:58.043Z,10.10
2022-08-12T18:06:08.081Z,10.20
2022-08-12T18:12:05.101Z,6.40
2022-08-12T18:14:16.244Z,7.40
2022-08-12T18:16:56.846Z,7.90
2022-08-12T18:19:24.145Z,8.80
2022-08-12T18:22:01.631Z,8.30
2022-08-12T18:24:29.938Z,5.40
2022-08-12T18:26:57.687Z,5.60
2022-08-12T18:29:27.213Z,6.10
2022-08-12T18:32:35.025Z,6.90
2022-08-12T18:35:10.345Z,6.80
2022-08-12T18:37:42.150Z,7.70
2022-08-12T18:40:29.232Z,5.60
2022-08-12T18:42:57.127Z,6.60
2022-08-12T18:45:31.680Z,7.20
2022-08-12T18:48:14.512Z,7.30
2022-08-12T18:50:49.083Z,8.90
2022-08-12T18:54:05.046Z,8.70
2022-08-12T18:56:06.887Z,5.70
2022-08-12T18:58:59.839Z,6.10
2022-08-12T19:02:17.199Z,6.80
2022-08-12T19:04:15.342Z,7.50
2022-08-12T19:06:46.526Z,7.60
2022-08-12T19:09:14.455Z,8.20
2022-08-12T19:12:01.090Z,8.30
2022-08-12T19:14:28.415Z,7.20
2022-08-12T19:16:57.862Z,8.20
2022-08-12T19:19:25.177Z,8.00
2022-08-12T19:21:56.985Z,8.30
2022-08-12T19:24:44.076Z,7.60
2022-08-12T19:27:15.548Z,5.40
2022-08-12T19:29:44.484Z,6.00
2022-08-12T19:32:31.313Z,6.50
2022-08-12T19:38:04.366Z,7.60
2022-08-12T19:40:34.073Z,6.10
2022-08-12T19:43:17.251Z,5.50
2022-08-12T19:45:52.609Z,6.10
2022-08-12T19:48:22.398Z,6.40
2022-08-12T19:50:52.938Z,7.30
2022-08-12T19:53:23.661Z,7.50
2022-08-12T19:55:52.925Z,5.80
2022-08-12T19:58:21.126Z,5.70
2022-08-12T20:00:53.212Z,6.20
2022-08-12T20:03:39.734Z,7.00
2022-08-12T20:06:16.109Z,7.30
2022-08-12T20:08:55.928Z,7.40
2022-08-12T20:12:09.159Z,5.40
2022-08-12T20:14:13.767Z,5.10
2022-08-12T20:16:53.098Z,5.90
2022-08-12T20:19:53.276Z,6.90
2022-08-12T20:22:24.704Z,7.40
2022-08-12T20:25:01.248Z,7.50
2022-08-12T20:28:03.075Z,5.60
2022-08-12T20:30:38.085Z,6.20
2022-08-12T20:33:18.546Z,5.90
2022-08-12T20:36:06.567Z,7.00
2022-08-12T20:38:37.929Z,6.90
2022-08-12T20:41:05.865Z,7.20
2022-08-12T20:43:44.995Z,6.20
2022-08-12T20:46:13.376Z,6.90
2022-08-12T20:48:44.026Z,7.00
2022-08-12T20:51:19.202Z,7.50
2022-08-12T20:53:58.260Z,7.70
2022-08-12T20:56:34.972Z,6.60
2022-08-12T20:59:10.105Z,6.30
2022-08-12T21:01:46.857Z,8.20
2022-08-12T21:04:35.599Z,7.90
2022-08-12T21:07:09.008Z,8.20
2022-08-12T21:09:46.657Z,5.60
2022-08-12T21:12:28.571Z,6.80
2022-08-12T21:15:24.072Z,8.50
2022-08-12T21:18:08.949Z,8.00
2022-08-12T21:20:39.039Z,7.80
2022-08-12T21:23:07.279Z,8.30
2022-08-12T21:25:44.418Z,18.80
2022-08-12T21:28:13.874Z,9.30
2022-08-12T21:31:11.504Z,9.00
2022-08-12T21:33:31.661Z,12.00
2022-08-12T21:36:00.608Z,8.20
2022-08-12T21:38:35.017Z,8.30
2022-08-12T21:41:06.921Z,8.50
2022-08-12T21:43:44.741Z,8.00
2022-08-12T21:49:04.906Z,6.40
2022-08-12T21:51:49.698Z,7.60
2022-08-12T21:54:22.073Z,8.00
2022-08-12T21:56:52.489Z,8.60
2022-08-12T21:59:21.587Z,13.30
2022-08-12T22:01:49.485Z,16.60
2022-08-12T22:04:35.734Z,22.10
2022-08-12T22:07:05.684Z,17.30
2022-08-12T22:09:43.476Z,17.30
2022-08-12T22:12:29.941Z,41.10
2022-08-12T22:14:57.394Z,23.30
2022-08-12T22:17:33.287Z,14.70
2022-08-12T22:20:16.936Z,21.10
2022-08-12T22:22:53.575Z,38.10
2022-08-12T22:25:27.278Z,36.80
2022-08-12T22:28:13.351Z,13.30
2022-08-12T22:30:59.992Z,9.00
2022-08-12T22:33:27.021Z,8.10
2022-08-12T22:35:59.685Z,8.20
2022-08-12T22:38:29.067Z,7.90
2022-08-12T22:41:00.574Z,7.90
2022-08-12T22:43:59.795Z,5.80
2022-08-12T22:46:53.594Z,6.20
2022-08-12T22:49:37.035Z,6.10
2022-08-12T22:52:18.721Z,7.20
2022-08-12T22:57:53.614Z,8.80
2022-08-12T23:00:23.889Z,8.60
2022-08-12T23:02:52.002Z,8.80
2022-08-12T23:05:56.736Z,8.20
2022-08-12T23:08:13.645Z,8.10
2022-08-12T23:10:46.575Z,14.50
2022-08-12T23:13:43.202Z,21.80
2022-08-12T23:16:29.524Z,13.50
2022-08-12T23:19:01.853Z,9.40
2022-08-12T23:21:40.548Z,8.50
2022-08-12T23:24:31.249Z,7.30
2022-08-12T23:27:18.133Z,6.90
2022-08-12T23:30:17.509Z,6.10
2022-08-12T23:32:36.960Z,4.70
2022-08-12T23:35:06.872Z,5.40
2022-08-12T23:37:47.636Z,5.40
2022-08-12T23:40:22.536Z,5.60
2022-08-12T23:42:56.515Z,6.10
2022-08-12T23:45:31.179Z,6.40
2022-08-12T23:48:00.660Z,5.00
2022-08-12T23:50:34.405Z,6.60
2022-08-12T23:53:06.409Z,5.80
2022-08-12T23:55:43.241Z,5.40
2022-08-12T23:58:21.726Z,5.30
